sensor_id;sensor_type;location;lat;lon;timestamp;P1;durP1;ratioP1;P2;durP2;ratioP2
6388;SDS011;3227;42.654;23.360;2022-10-16T00:01:38;25.17;;;11.10;;
6388;SDS011;3227;42.654;23.360;2022-10-16T00:04:06;18.70;;;10.30;;
6388;SDS011;3227;42.654;23.360;2022-10-16T00:06:34;16.43;;;10.23;;
6388;SDS011;3227;42.654;23.360;2022-10-16T00:09:01;16.20;;;10.53;;
6388;SDS011;3227;42.654;23.360;2022-10-16T00:11:28;17.10;;;10.63;;
6388;SDS011;3227;42.654;23.360;2022-10-16T00:13:59;19.37;;;10.33;;
6388;SDS011;3227;42.654;23.360;2022-10-16T00:16:27;19.27;;;10.33;;
6388;SDS011;3227;42.654;23.360;2022-10-16T00:18:54;17.47;;;10.23;;
6388;SDS011;3227;42.654;23.360;2022-10-16T00:21:23;17.83;;;10.23;;
6388;SDS011;3227;42.654;23.360;2022-10-16T00:23:53;19.97;;;10.73;;
6388;SDS011;3227;42.654;23.360;2022-10-16T00:26:21;15.90;;;10.53;;
6388;SDS011;3227;42.654;23.360;2022-10-16T00:28:49;15.73;;;10.00;;
6388;SDS011;3227;42.654;23.360;2022-10-16T00:31:17;21.10;;;9.93;;
6388;SDS011;3227;42.654;23.360;2022-10-16T00:33:46;15.60;;;9.73;;
6388;SDS011;3227;42.654;23.360;2022-10-16T00:36:14;17.03;;;9.70;;
6388;SDS011;3227;42.654;23.360;2022-10-16T00:38:42;17.73;;;10.23;;
6388;SDS011;3227;42.654;23.360;2022-10-16T00:41:13;20.67;;;10.73;;
6388;SDS011;3227;42.654;23.360;2022-10-16T00:43:41;14.97;;;9.73;;
6388;SDS011;3227;42.654;23.360;2022-10-16T00:46:11;14.37;;;9.70;;
6388;SDS011;3227;42.654;23.360;2022-10-16T00:48:42;16.07;;;9.37;;
6388;SDS011;3227;42.654;23.360;2022-10-16T00:51:14;17.23;;;9.70;;
6388;SDS011;3227;42.654;23.360;2022-10-16T00:53:43;17.70;;;10.60;;
6388;SDS011;3227;42.654;23.360;2022-10-16T00:56:12;16.80;;;10.03;;
6388;SDS011;3227;42.654;23.360;2022-10-16T00:58:39;16.83;;;9.80;;
6388;SDS011;3227;42.654;23.360;2022-10-16T01:01:06;17.80;;;10.63;;
6388;SDS011;3227;42.654;23.360;2022-10-16T01:03:34;15.17;;;9.53;;
6388;SDS011;3227;42.654;23.360;2022-10-16T01:06:07;16.83;;;10.30;;
6388;SDS011;3227;42.654;23.360;2022-10-16T01:08:44;16.10;;;9.10;;
6388;SDS011;3227;42.654;23.360;2022-10-16T01:11:23;19.37;;;9.73;;
6388;SDS011;3227;42.654;23.360;2022-10-16T01:13:58;16.03;;;10.27;;
6388;SDS011;3227;42.654;23.360;2022-10-16T01:16:32;14.87;;;8.67;;
6388;SDS011;3227;42.654;23.360;2022-10-16T01:19:05;19.73;;;8.53;;
6388;SDS011;3227;42.654;23.360;2022-10-16T01:21:39;14.77;;;8.40;;
6388;SDS011;3227;42.654;23.360;2022-10-16T01:24:12;14.90;;;7.63;;
6388;SDS011;3227;42.654;23.360;2022-10-16T01:26:58;14.00;;;8.90;;
6388;SDS011;3227;42.654;23.360;2022-10-16T01:29:37;15.80;;;8.53;;
6388;SDS011;3227;42.654;23.360;2022-10-16T01:32:10;13.17;;;8.17;;
6388;SDS011;3227;42.654;23.360;2022-10-16T01:34:44;14.70;;;8.33;;
6388;SDS011;3227;42.654;23.360;2022-10-16T01:37:15;15.37;;;8.60;;
6388;SDS011;3227;42.654;23.360;2022-10-16T01:39:51;13.57;;;8.37;;
6388;SDS011;3227;42.654;23.360;2022-10-16T01:42:26;16.33;;;8.73;;
6388;SDS011;3227;42.654;23.360;2022-10-16T01:44:57;12.83;;;8.50;;
6388;SDS011;3227;42.654;23.360;2022-10-16T01:47:26;17.10;;;8.37;;
6388;SDS011;3227;42.654;23.360;2022-10-16T01:49:56;13.07;;;8.57;;
6388;SDS011;3227;42.654;23.360;2022-10-16T01:52:26;14.27;;;8.50;;
6388;SDS011;3227;42.654;23.360;2022-10-16T01:54:56;14.03;;;8.20;;
6388;SDS011;3227;42.654;23.360;2022-10-16T01:57:27;13.13;;;7.93;;
6388;SDS011;3227;42.654;23.360;2022-10-16T01:59:56;11.30;;;8.03;;
6388;SDS011;3227;42.654;23.360;2022-10-16T02:02:27;16.27;;;8.07;;
6388;SDS011;3227;42.654;23.360;2022-10-16T02:04:58;15.10;;;8.57;;
6388;SDS011;3227;42.654;23.360;2022-10-16T02:07:31;14.03;;;8.83;;
6388;SDS011;3227;42.654;23.360;2022-10-16T02:09:57;14.47;;;7.93;;
6388;SDS011;3227;42.654;23.360;2022-10-16T02:12:28;13.20;;;7.90;;
6388;SDS011;3227;42.654;23.360;2022-10-16T02:14:58;11.53;;;8.37;;
6388;SDS011;3227;42.654;23.360;2022-10-16T02:17:26;12.63;;;7.83;;
6388;SDS011;3227;42.654;23.360;2022-10-16T02:19:53;12.83;;;7.33;;
6388;SDS011;3227;42.654;23.360;2022-10-16T02:22:24;12.77;;;7.40;;
6388;SDS011;3227;42.654;23.360;2022-10-16T02:24:54;14.50;;;7.50;;
6388;SDS011;3227;42.654;23.360;2022-10-16T02:27:25;12.67;;;8.10;;
6388;SDS011;3227;42.654;23.360;2022-10-16T02:30:00;14.17;;;7.60;;
6388;SDS011;3227;42.654;23.360;2022-10-16T02:32:32;12.50;;;8.33;;
6388;SDS011;3227;42.654;23.360;2022-10-16T02:35:02;11.57;;;8.10;;
6388;SDS011;3227;42.654;23.360;2022-10-16T02:37:30;13.80;;;7.93;;
6388;SDS011;3227;42.654;23.360;2022-10-16T02:39:58;15.23;;;8.50;;
6388;SDS011;3227;42.654;23.360;2022-10-16T02:42:31;13.53;;;8.20;;
6388;SDS011;3227;42.654;23.360;2022-10-16T02:45:00;11.27;;;8.13;;
6388;SDS011;3227;42.654;23.360;2022-10-16T02:47:27;16.07;;;8.57;;
6388;SDS011;3227;42.654;23.360;2022-10-16T02:49:53;13.70;;;8.33;;
6388;SDS011;3227;42.654;23.360;2022-10-16T02:52:20;14.50;;;8.37;;
6388;SDS011;3227;42.654;23.360;2022-10-16T02:54:47;14.00;;;8.13;;
6388;SDS011;3227;42.654;23.360;2022-10-16T02:57:14;13.50;;;8.43;;
6388;SDS011;3227;42.654;23.360;2022-10-16T02:59:42;16.50;;;8.17;;
6388;SDS011;3227;42.654;23.360;2022-10-16T03:02:09;13.57;;;7.77;;
6388;SDS011;3227;42.654;23.360;2022-10-16T03:04:36;17.10;;;8.77;;
6388;SDS011;3227;42.654;23.360;2022-10-16T03:07:03;12.77;;;8.30;;
6388;SDS011;3227;42.654;23.360;2022-10-16T03:09:30;13.93;;;8.67;;
6388;SDS011;3227;42.654;23.360;2022-10-16T03:11:57;14.40;;;8.27;;
6388;SDS011;3227;42.654;23.360;2022-10-16T03:14:24;16.80;;;9.33;;
6388;SDS011;3227;42.654;23.360;2022-10-16T03:16:52;13.83;;;8.93;;
6388;SDS011;3227;42.654;23.360;2022-10-16T03:19:19;13.43;;;8.70;;
6388;SDS011;3227;42.654;23.360;2022-10-16T03:21:46;13.23;;;8.60;;
6388;SDS011;3227;42.654;23.360;2022-10-16T03:24:13;14.03;;;8.50;;
6388;SDS011;3227;42.654;23.360;2022-10-16T03:26:39;15.97;;;9.00;;
6388;SDS011;3227;42.654;23.360;2022-10-16T03:29:06;13.37;;;8.77;;
6388;SDS011;3227;42.654;23.360;2022-10-16T03:31:33;12.57;;;8.10;;
6388;SDS011;3227;42.654;23.360;2022-10-16T03:34:01;14.27;;;9.13;;
6388;SDS011;3227;42.654;23.360;2022-10-16T03:36:28;13.90;;;8.70;;
6388;SDS011;3227;42.654;23.360;2022-10-16T03:38:55;11.27;;;7.63;;
6388;SDS011;3227;42.654;23.360;2022-10-16T03:41:22;10.90;;;6.47;;
6388;SDS011;3227;42.654;23.360;2022-10-16T03:43:48;13.13;;;7.57;;
6388;SDS011;3227;42.654;23.360;2022-10-16T03:46:15;12.00;;;6.87;;
6388;SDS011;3227;42.654;23.360;2022-10-16T03:48:42;12.00;;;7.40;;
6388;SDS011;3227;42.654;23.360;2022-10-16T03:51:10;11.00;;;7.03;;
6388;SDS011;3227;42.654;23.360;2022-10-16T03:53:37;13.70;;;7.63;;
6388;SDS011;3227;42.654;23.360;2022-10-16T03:56:04;13.27;;;7.70;;
6388;SDS011;3227;42.654;23.360;2022-10-16T03:58:31;12.73;;;7.10;;
6388;SDS011;3227;42.654;23.360;2022-10-16T04:00:58;10.63;;;6.70;;
6388;SDS011;3227;42.654;23.360;2022-10-16T04:03:24;12.03;;;7.40;;
6388;SDS011;3227;42.654;23.360;2022-10-16T04:05:51;15.67;;;7.60;;
6388;SDS011;3227;42.654;23.360;2022-10-16T04:08:19;17.83;;;9.03;;
6388;SDS011;3227;42.654;23.360;2022-10-16T04:10:46;16.10;;;8.17;;
6388;SDS011;3227;42.654;23.360;2022-10-16T04:13:13;18.73;;;9.87;;
6388;SDS011;3227;42.654;23.360;2022-10-16T04:15:40;18.37;;;8.80;;
6388;SDS011;3227;42.654;23.360;2022-10-16T04:18:07;13.03;;;8.43;;
6388;SDS011;3227;42.654;23.360;2022-10-16T04:20:34;17.23;;;9.13;;
6388;SDS011;3227;42.654;23.360;2022-10-16T04:23:01;15.60;;;8.70;;
6388;SDS011;3227;42.654;23.360;2022-10-16T04:25:29;19.37;;;8.30;;
6388;SDS011;3227;42.654;23.360;2022-10-16T04:27:56;14.13;;;8.83;;
6388;SDS011;3227;42.654;23.360;2022-10-16T04:30:23;13.40;;;9.07;;
6388;SDS011;3227;42.654;23.360;2022-10-16T04:32:50;14.80;;;8.67;;
6388;SDS011;3227;42.654;23.360;2022-10-16T04:35:17;13.63;;;8.63;;
6388;SDS011;3227;42.654;23.360;2022-10-16T04:37:45;13.90;;;8.57;;
6388;SDS011;3227;42.654;23.360;2022-10-16T04:40:13;17.47;;;8.63;;
6388;SDS011;3227;42.654;23.360;2022-10-16T04:42:41;16.10;;;8.50;;
6388;SDS011;3227;42.654;23.360;2022-10-16T04:45:08;15.03;;;9.77;;
6388;SDS011;3227;42.654;23.360;2022-10-16T04:47:35;15.57;;;9.53;;
6388;SDS011;3227;42.654;23.360;2022-10-16T04:50:03;18.13;;;11.57;;
6388;SDS011;3227;42.654;23.360;2022-10-16T04:52:30;17.97;;;10.43;;
6388;SDS011;3227;42.654;23.360;2022-10-16T04:54:57;15.30;;;9.60;;
6388;SDS011;3227;42.654;23.360;2022-10-16T04:57:26;19.20;;;10.13;;
6388;SDS011;3227;42.654;23.360;2022-10-16T04:59:54;19.13;;;10.17;;
6388;SDS011;3227;42.654;23.360;2022-10-16T05:02:21;20.00;;;10.30;;
6388;SDS011;3227;42.654;23.360;2022-10-16T05:04:48;19.13;;;10.40;;
6388;SDS011;3227;42.654;23.360;2022-10-16T05:07:15;17.70;;;10.50;;
6388;SDS011;3227;42.654;23.360;2022-10-16T05:09:42;20.70;;;10.30;;
6388;SDS011;3227;42.654;23.360;2022-10-16T05:12:08;16.23;;;9.80;;
6388;SDS011;3227;42.654;23.360;2022-10-16T05:14:35;22.30;;;9.90;;
6388;SDS011;3227;42.654;23.360;2022-10-16T05:17:03;17.57;;;9.87;;
6388;SDS011;3227;42.654;23.360;2022-10-16T05:19:30;20.10;;;10.17;;
6388;SDS011;3227;42.654;23.360;2022-10-16T05:21:57;19.20;;;9.63;;
6388;SDS011;3227;42.654;23.360;2022-10-16T05:24:24;20.27;;;9.90;;
6388;SDS011;3227;42.654;23.360;2022-10-16T05:26:50;15.00;;;9.30;;
6388;SDS011;3227;42.654;23.360;2022-10-16T05:29:17;14.30;;;9.43;;
6388;SDS011;3227;42.654;23.360;2022-10-16T05:31:45;14.43;;;9.20;;
6388;SDS011;3227;42.654;23.360;2022-10-16T05:34:13;16.60;;;9.23;;
6388;SDS011;3227;42.654;23.360;2022-10-16T05:36:40;19.80;;;9.87;;
6388;SDS011;3227;42.654;23.360;2022-10-16T05:39:06;15.97;;;8.77;;
6388;SDS011;3227;42.654;23.360;2022-10-16T05:41:33;14.83;;;7.77;;
6388;SDS011;3227;42.654;23.360;2022-10-16T05:44:03;15.23;;;7.73;;
6388;SDS011;3227;42.654;23.360;2022-10-16T05:46:31;14.57;;;8.23;;
6388;SDS011;3227;42.654;23.360;2022-10-16T05:48:58;15.90;;;7.20;;
6388;SDS011;3227;42.654;23.360;2022-10-16T05:51:26;16.70;;;8.07;;
6388;SDS011;3227;42.654;23.360;2022-10-16T05:53:53;17.17;;;8.20;;
6388;SDS011;3227;42.654;23.360;2022-10-16T05:56:19;18.40;;;8.30;;
6388;SDS011;3227;42.654;23.360;2022-10-16T05:58:46;16.27;;;8.00;;
6388;SDS011;3227;42.654;23.360;2022-10-16T06:01:14;14.67;;;7.87;;
6388;SDS011;3227;42.654;23.360;2022-10-16T06:03:42;13.17;;;7.90;;
6388;SDS011;3227;42.654;23.360;2022-10-16T06:06:10;12.73;;;7.27;;
6388;SDS011;3227;42.654;23.360;2022-10-16T06:08:39;14.43;;;7.43;;
6388;SDS011;3227;42.654;23.360;2022-10-16T06:11:06;14.00;;;7.00;;
6388;SDS011;3227;42.654;23.360;2022-10-16T06:13:35;12.83;;;7.37;;
6388;SDS011;3227;42.654;23.360;2022-10-16T06:16:03;13.00;;;6.80;;
6388;SDS011;3227;42.654;23.360;2022-10-16T06:18:30;10.43;;;6.60;;
6388;SDS011;3227;42.654;23.360;2022-10-16T06:20:57;10.27;;;6.60;;
6388;SDS011;3227;42.654;23.360;2022-10-16T06:23:24;9.33;;;6.37;;
6388;SDS011;3227;42.654;23.360;2022-10-16T06:25:53;9.77;;;6.17;;
6388;SDS011;3227;42.654;23.360;2022-10-16T06:28:19;10.17;;;6.33;;
6388;SDS011;3227;42.654;23.360;2022-10-16T06:30:46;9.67;;;6.07;;
6388;SDS011;3227;42.654;23.360;2022-10-16T06:33:13;14.83;;;6.50;;
6388;SDS011;3227;42.654;23.360;2022-10-16T06:35:40;12.23;;;6.50;;
6388;SDS011;3227;42.654;23.360;2022-10-16T06:38:07;11.60;;;6.20;;
6388;SDS011;3227;42.654;23.360;2022-10-16T06:40:33;13.73;;;6.87;;
6388;SDS011;3227;42.654;23.360;2022-10-16T06:43:02;10.27;;;6.40;;
6388;SDS011;3227;42.654;23.360;2022-10-16T06:45:28;10.57;;;6.60;;
6388;SDS011;3227;42.654;23.360;2022-10-16T06:47:55;14.03;;;7.33;;
6388;SDS011;3227;42.654;23.360;2022-10-16T06:50:22;12.50;;;6.80;;
6388;SDS011;3227;42.654;23.360;2022-10-16T06:52:49;12.43;;;6.77;;
6388;SDS011;3227;42.654;23.360;2022-10-16T06:55:16;12.57;;;6.63;;
6388;SDS011;3227;42.654;23.360;2022-10-16T06:57:43;11.83;;;7.10;;
6388;SDS011;3227;42.654;23.360;2022-10-16T07:00:12;15.73;;;7.90;;
6388;SDS011;3227;42.654;23.360;2022-10-16T07:02:38;22.47;;;10.37;;
6388;SDS011;3227;42.654;23.360;2022-10-16T07:05:06;16.37;;;9.77;;
6388;SDS011;3227;42.654;23.360;2022-10-16T07:07:33;10.03;;;6.60;;
6388;SDS011;3227;42.654;23.360;2022-10-16T07:10:00;10.60;;;6.13;;
6388;SDS011;3227;42.654;23.360;2022-10-16T07:12:27;10.63;;;6.97;;
6388;SDS011;3227;42.654;23.360;2022-10-16T07:14:53;11.97;;;6.97;;
6388;SDS011;3227;42.654;23.360;2022-10-16T07:17:22;11.13;;;7.50;;
6388;SDS011;3227;42.654;23.360;2022-10-16T07:19:49;22.37;;;10.23;;
6388;SDS011;3227;42.654;23.360;2022-10-16T07:22:18;13.17;;;8.03;;
6388;SDS011;3227;42.654;23.360;2022-10-16T07:24:45;14.90;;;8.93;;
6388;SDS011;3227;42.654;23.360;2022-10-16T07:27:11;13.70;;;9.23;;
6388;SDS011;3227;42.654;23.360;2022-10-16T07:29:38;16.23;;;9.13;;
6388;SDS011;3227;42.654;23.360;2022-10-16T07:32:05;16.97;;;9.27;;
6388;SDS011;3227;42.654;23.360;2022-10-16T07:34:33;19.83;;;9.97;;
6388;SDS011;3227;42.654;23.360;2022-10-16T07:37:00;16.20;;;8.73;;
6388;SDS011;3227;42.654;23.360;2022-10-16T07:39:27;14.80;;;9.97;;
6388;SDS011;3227;42.654;23.360;2022-10-16T07:41:54;15.77;;;9.53;;
6388;SDS011;3227;42.654;23.360;2022-10-16T07:44:21;14.67;;;9.43;;
6388;SDS011;3227;42.654;23.360;2022-10-16T07:46:48;12.77;;;8.30;;
6388;SDS011;3227;42.654;23.360;2022-10-16T07:49:14;13.90;;;8.47;;
6388;SDS011;3227;42.654;23.360;2022-10-16T07:51:43;17.50;;;9.43;;
6388;SDS011;3227;42.654;23.360;2022-10-16T07:54:09;13.83;;;8.87;;
6388;SDS011;3227;42.654;23.360;2022-10-16T07:56:36;13.97;;;9.00;;
6388;SDS011;3227;42.654;23.360;2022-10-16T07:59:03;13.63;;;9.00;;
6388;SDS011;3227;42.654;23.360;2022-10-16T08:01:30;15.00;;;8.97;;
6388;SDS011;3227;42.654;23.360;2022-10-16T08:03:57;14.83;;;8.37;;
6388;SDS011;3227;42.654;23.360;2022-10-16T08:06:24;12.83;;;8.57;;
6388;SDS011;3227;42.654;23.360;2022-10-16T08:08:52;13.80;;;8.30;;
6388;SDS011;3227;42.654;23.360;2022-10-16T08:11:19;16.40;;;8.17;;
6388;SDS011;3227;42.654;23.360;2022-10-16T08:13:46;12.20;;;7.80;;
6388;SDS011;3227;42.654;23.360;2022-10-16T08:16:13;14.07;;;8.30;;
6388;SDS011;3227;42.654;23.360;2022-10-16T08:18:40;13.20;;;8.20;;
6388;SDS011;3227;42.654;23.360;2022-10-16T08:21:08;13.87;;;8.10;;
6388;SDS011;3227;42.654;23.360;2022-10-16T08:23:39;13.73;;;7.50;;
6388;SDS011;3227;42.654;23.360;2022-10-16T08:26:12;13.43;;;7.53;;
6388;SDS011;3227;42.654;23.360;2022-10-16T08:28:39;15.83;;;7.90;;
6388;SDS011;3227;42.654;23.360;2022-10-16T08:31:07;13.80;;;7.60;;
6388;SDS011;3227;42.654;23.360;2022-10-16T08:33:35;13.40;;;7.67;;
6388;SDS011;3227;42.654;23.360;2022-10-16T08:36:08;11.47;;;7.10;;
6388;SDS011;3227;42.654;23.360;2022-10-16T08:38:36;13.03;;;7.30;;
6388;SDS011;3227;42.654;23.360;2022-10-16T08:41:13;9.47;;;6.53;;
6388;SDS011;3227;42.654;23.360;2022-10-16T08:46:56;11.70;;;5.57;;
6388;SDS011;3227;42.654;23.360;2022-10-16T08:49:47;14.90;;;7.93;;
6388;SDS011;3227;42.654;23.360;2022-10-16T08:52:29;11.37;;;6.60;;
6388;SDS011;3227;42.654;23.360;2022-10-16T08:54:58;10.27;;;5.80;;
6388;SDS011;3227;42.654;23.360;2022-10-16T08:57:27;9.83;;;6.23;;
6388;SDS011;3227;42.654;23.360;2022-10-16T08:59:53;12.93;;;6.07;;
6388;SDS011;3227;42.654;23.360;2022-10-16T09:02:27;12.10;;;6.77;;
6388;SDS011;3227;42.654;23.360;2022-10-16T09:05:02;13.37;;;6.27;;
6388;SDS011;3227;42.654;23.360;2022-10-16T09:07:53;12.33;;;5.03;;
6388;SDS011;3227;42.654;23.360;2022-10-16T09:10:33;7.97;;;5.03;;
6388;SDS011;3227;42.654;23.360;2022-10-16T09:13:12;11.37;;;5.33;;
6388;SDS011;3227;42.654;23.360;2022-10-16T09:15:47;8.17;;;4.40;;
6388;SDS011;3227;42.654;23.360;2022-10-16T09:18:23;8.27;;;4.90;;
6388;SDS011;3227;42.654;23.360;2022-10-16T09:20:57;13.23;;;5.90;;
6388;SDS011;3227;42.654;23.360;2022-10-16T09:23:33;8.23;;;4.60;;
6388;SDS011;3227;42.654;23.360;2022-10-16T09:26:01;8.43;;;4.87;;
6388;SDS011;3227;42.654;23.360;2022-10-16T09:28:31;9.20;;;5.23;;
6388;SDS011;3227;42.654;23.360;2022-10-16T09:30:58;9.80;;;5.07;;
6388;SDS011;3227;42.654;23.360;2022-10-16T09:33:25;11.40;;;4.90;;
6388;SDS011;3227;42.654;23.360;2022-10-16T09:35:56;8.63;;;4.57;;
6388;SDS011;3227;42.654;23.360;2022-10-16T09:38:26;8.57;;;4.37;;
6388;SDS011;3227;42.654;23.360;2022-10-16T09:40:56;9.63;;;4.67;;
6388;SDS011;3227;42.654;23.360;2022-10-16T09:43:24;9.70;;;4.87;;
6388;SDS011;3227;42.654;23.360;2022-10-16T09:46:00;8.77;;;4.60;;
6388;SDS011;3227;42.654;23.360;2022-10-16T09:48:31;8.50;;;4.30;;
6388;SDS011;3227;42.654;23.360;2022-10-16T09:51:03;8.47;;;4.10;;
6388;SDS011;3227;42.654;23.360;2022-10-16T09:53:39;7.97;;;4.40;;
6388;SDS011;3227;42.654;23.360;2022-10-16T09:56:09;7.37;;;4.23;;
6388;SDS011;3227;42.654;23.360;2022-10-16T09:58:41;7.63;;;4.57;;
6388;SDS011;3227;42.654;23.360;2022-10-16T10:01:11;10.80;;;4.70;;
6388;SDS011;3227;42.654;23.360;2022-10-16T10:03:40;8.43;;;3.93;;
6388;SDS011;3227;42.654;23.360;2022-10-16T10:09:00;7.80;;;4.27;;
6388;SDS011;3227;42.654;23.360;2022-10-16T10:11:36;9.10;;;4.60;;
6388;SDS011;3227;42.654;23.360;2022-10-16T10:14:09;7.70;;;4.53;;
6388;SDS011;3227;42.654;23.360;2022-10-16T10:17:09;7.90;;;4.43;;
6388;SDS011;3227;42.654;23.360;2022-10-16T10:19:38;8.00;;;4.63;;
6388;SDS011;3227;42.654;23.360;2022-10-16T10:22:16;7.97;;;4.60;;
6388;SDS011;3227;42.654;23.360;2022-10-16T10:24:54;6.90;;;3.80;;
6388;SDS011;3227;42.654;23.360;2022-10-16T10:27:22;11.63;;;4.10;;
6388;SDS011;3227;42.654;23.360;2022-10-16T10:29:56;6.90;;;3.90;;
6388;SDS011;3227;42.654;23.360;2022-10-16T10:32:32;7.70;;;4.20;;
6388;SDS011;3227;42.654;23.360;2022-10-16T10:35:12;8.30;;;4.50;;
6388;SDS011;3227;42.654;23.360;2022-10-16T10:37:56;9.40;;;5.30;;
6388;SDS011;3227;42.654;23.360;2022-10-16T10:40:38;8.03;;;4.30;;
6388;SDS011;3227;42.654;23.360;2022-10-16T10:43:15;11.37;;;4.87;;
6388;SDS011;3227;42.654;23.360;2022-10-16T10:45:57;9.30;;;4.47;;
6388;SDS011;3227;42.654;23.360;2022-10-16T10:48:38;9.77;;;4.33;;
6388;SDS011;3227;42.654;23.360;2022-10-16T10:51:15;12.03;;;4.63;;
6388;SDS011;3227;42.654;23.360;2022-10-16T10:53:52;7.33;;;4.23;;
6388;SDS011;3227;42.654;23.360;2022-10-16T10:56:38;7.77;;;3.93;;
6388;SDS011;3227;42.654;23.360;2022-10-16T11:02:29;6.83;;;3.50;;
6388;SDS011;3227;42.654;23.360;2022-10-16T11:05:12;7.50;;;4.07;;
6388;SDS011;3227;42.654;23.360;2022-10-16T11:07:49;6.73;;;3.47;;
6388;SDS011;3227;42.654;23.360;2022-10-16T11:10:20;8.43;;;3.70;;
6388;SDS011;3227;42.654;23.360;2022-10-16T11:12:50;8.37;;;3.50;;
6388;SDS011;3227;42.654;23.360;2022-10-16T11:15:22;5.87;;;3.37;;
6388;SDS011;3227;42.654;23.360;2022-10-16T11:17:55;6.77;;;3.37;;
6388;SDS011;3227;42.654;23.360;2022-10-16T11:20:31;6.80;;;2.87;;
6388;SDS011;3227;42.654;23.360;2022-10-16T11:23:01;7.47;;;3.33;;
6388;SDS011;3227;42.654;23.360;2022-10-16T11:25:34;6.63;;;3.07;;
6388;SDS011;3227;42.654;23.360;2022-10-16T11:28:01;6.27;;;3.30;;
6388;SDS011;3227;42.654;23.360;2022-10-16T11:30:39;10.77;;;3.63;;
6388;SDS011;3227;42.654;23.360;2022-10-16T11:33:14;8.87;;;3.90;;
6388;SDS011;3227;42.654;23.360;2022-10-16T11:35:53;7.77;;;3.47;;
6388;SDS011;3227;42.654;23.360;2022-10-16T11:38:27;5.70;;;3.50;;
6388;SDS011;3227;42.654;23.360;2022-10-16T11:40:58;5.40;;;3.07;;
6388;SDS011;3227;42.654;23.360;2022-10-16T11:43:29;9.07;;;3.67;;
6388;SDS011;3227;42.654;23.360;2022-10-16T11:46:04;5.10;;;3.00;;
6388;SDS011;3227;42.654;23.360;2022-10-16T11:48:39;6.17;;;3.60;;
6388;SDS011;3227;42.654;23.360;2022-10-16T11:51:11;7.07;;;3.47;;
6388;SDS011;3227;42.654;23.360;2022-10-16T11:53:45;5.57;;;2.97;;
6388;SDS011;3227;42.654;23.360;2022-10-16T11:56:22;7.70;;;3.10;;
6388;SDS011;3227;42.654;23.360;2022-10-16T11:58:52;8.33;;;3.20;;
6388;SDS011;3227;42.654;23.360;2022-10-16T12:01:26;7.17;;;3.53;;
6388;SDS011;3227;42.654;23.360;2022-10-16T12:04:12;6.47;;;3.13;;
6388;SDS011;3227;42.654;23.360;2022-10-16T12:06:49;8.50;;;3.20;;
6388;SDS011;3227;42.654;23.360;2022-10-16T12:09:22;7.97;;;2.80;;
6388;SDS011;3227;42.654;23.360;2022-10-16T12:11:52;6.57;;;3.60;;
6388;SDS011;3227;42.654;23.360;2022-10-16T12:14:21;7.07;;;3.80;;
6388;SDS011;3227;42.654;23.360;2022-10-16T12:17:01;6.07;;;3.40;;
6388;SDS011;3227;42.654;23.360;2022-10-16T12:19:31;5.53;;;3.23;;
6388;SDS011;3227;42.654;23.360;2022-10-16T12:22:01;5.70;;;3.00;;
6388;SDS011;3227;42.654;23.360;2022-10-16T12:24:31;8.10;;;3.17;;
6388;SDS011;3227;42.654;23.360;2022-10-16T12:27:01;8.13;;;3.70;;
6388;SDS011;3227;42.654;23.360;2022-10-16T12:29:32;7.53;;;3.57;;
6388;SDS011;3227;42.654;23.360;2022-10-16T12:32:02;6.33;;;3.43;;
6388;SDS011;3227;42.654;23.360;2022-10-16T12:34:32;6.23;;;3.30;;
6388;SDS011;3227;42.654;23.360;2022-10-16T12:37:11;6.37;;;2.80;;
6388;SDS011;3227;42.654;23.360;2022-10-16T12:39:41;5.73;;;2.83;;
6388;SDS011;3227;42.654;23.360;2022-10-16T12:42:31;5.37;;;2.83;;
6388;SDS011;3227;42.654;23.360;2022-10-16T12:45:00;7.53;;;2.90;;
6388;SDS011;3227;42.654;23.360;2022-10-16T12:47:37;8.70;;;3.47;;
6388;SDS011;3227;42.654;23.360;2022-10-16T12:50:30;9.00;;;4.70;;
6388;SDS011;3227;42.654;23.360;2022-10-16T12:53:01;9.43;;;3.47;;
6388;SDS011;3227;42.654;23.360;2022-10-16T12:55:32;5.30;;;3.03;;
6388;SDS011;3227;42.654;23.360;2022-10-16T13:01:19;7.13;;;3.47;;
6388;SDS011;3227;42.654;23.360;2022-10-16T13:04:00;7.13;;;3.40;;
6388;SDS011;3227;42.654;23.360;2022-10-16T13:06:45;6.60;;;3.50;;
6388;SDS011;3227;42.654;23.360;2022-10-16T13:09:26;6.53;;;3.50;;
6388;SDS011;3227;42.654;23.360;2022-10-16T13:12:15;13.50;;;4.03;;
6388;SDS011;3227;42.654;23.360;2022-10-16T13:15:02;7.83;;;3.20;;
6388;SDS011;3227;42.654;23.360;2022-10-16T13:17:43;7.13;;;3.10;;
6388;SDS011;3227;42.654;23.360;2022-10-16T13:20:20;6.03;;;3.40;;
6388;SDS011;3227;42.654;23.360;2022-10-16T13:22:56;5.30;;;2.85;;
6388;SDS011;3227;42.654;23.360;2022-10-16T13:25:38;5.43;;;3.08;;
6388;SDS011;3227;42.654;23.360;2022-10-16T13:28:11;7.20;;;3.43;;
6388;SDS011;3227;42.654;23.360;2022-10-16T13:30:40;6.27;;;3.20;;
6388;SDS011;3227;42.654;23.360;2022-10-16T13:33:12;6.70;;;3.15;;
6388;SDS011;3227;42.654;23.360;2022-10-16T13:35:47;6.55;;;3.35;;
6388;SDS011;3227;42.654;23.360;2022-10-16T13:38:16;5.90;;;3.38;;
6388;SDS011;3227;42.654;23.360;2022-10-16T13:40:49;5.57;;;3.17;;
6388;SDS011;3227;42.654;23.360;2022-10-16T13:43:18;5.60;;;3.20;;
6388;SDS011;3227;42.654;23.360;2022-10-16T13:45:55;6.73;;;3.37;;
6388;SDS011;3227;42.654;23.360;2022-10-16T13:48:23;6.35;;;3.55;;
6388;SDS011;3227;42.654;23.360;2022-10-16T13:50:59;7.05;;;3.17;;
6388;SDS011;3227;42.654;23.360;2022-10-16T13:53:31;7.40;;;3.40;;
6388;SDS011;3227;42.654;23.360;2022-10-16T13:56:01;7.30;;;3.10;;
6388;SDS011;3227;42.654;23.360;2022-10-16T13:58:30;6.90;;;3.40;;
6388;SDS011;3227;42.654;23.360;2022-10-16T14:00:57;5.97;;;3.20;;
6388;SDS011;3227;42.654;23.360;2022-10-16T14:03:26;8.87;;;3.30;;
6388;SDS011;3227;42.654;23.360;2022-10-16T14:05:55;6.70;;;3.60;;
6388;SDS011;3227;42.654;23.360;2022-10-16T14:08:24;7.03;;;4.00;;
6388;SDS011;3227;42.654;23.360;2022-10-16T14:10:54;10.90;;;3.20;;
6388;SDS011;3227;42.654;23.360;2022-10-16T14:13:26;6.20;;;3.30;;
6388;SDS011;3227;42.654;23.360;2022-10-16T14:15:57;6.93;;;3.63;;
6388;SDS011;3227;42.654;23.360;2022-10-16T14:18:28;7.60;;;3.60;;
6388;SDS011;3227;42.654;23.360;2022-10-16T14:20:55;8.77;;;3.70;;
6388;SDS011;3227;42.654;23.360;2022-10-16T14:23:30;6.47;;;2.90;;
6388;SDS011;3227;42.654;23.360;2022-10-16T14:26:05;6.80;;;3.90;;
6388;SDS011;3227;42.654;23.360;2022-10-16T14:28:40;7.73;;;3.60;;
6388;SDS011;3227;42.654;23.360;2022-10-16T14:34:04;6.03;;;3.53;;
6388;SDS011;3227;42.654;23.360;2022-10-16T14:36:49;6.97;;;2.93;;
6388;SDS011;3227;42.654;23.360;2022-10-16T14:39:19;7.07;;;3.37;;
6388;SDS011;3227;42.654;23.360;2022-10-16T14:41:48;5.83;;;3.30;;
6388;SDS011;3227;42.654;23.360;2022-10-16T14:44:18;6.13;;;3.40;;
6388;SDS011;3227;42.654;23.360;2022-10-16T14:46:54;7.27;;;3.40;;
6388;SDS011;3227;42.654;23.360;2022-10-16T14:49:21;6.60;;;3.40;;
6388;SDS011;3227;42.654;23.360;2022-10-16T14:51:49;6.00;;;3.13;;
6388;SDS011;3227;42.654;23.360;2022-10-16T14:54:17;7.90;;;3.30;;
6388;SDS011;3227;42.654;23.360;2022-10-16T14:56:46;9.83;;;3.53;;
6388;SDS011;3227;42.654;23.360;2022-10-16T14:59:15;6.43;;;3.40;;
6388;SDS011;3227;42.654;23.360;2022-10-16T15:01:48;6.73;;;3.50;;
6388;SDS011;3227;42.654;23.360;2022-10-16T15:04:15;6.90;;;3.60;;
6388;SDS011;3227;42.654;23.360;2022-10-16T15:06:42;7.70;;;3.40;;
6388;SDS011;3227;42.654;23.360;2022-10-16T15:09:09;7.43;;;3.60;;
6388;SDS011;3227;42.654;23.360;2022-10-16T15:11:36;7.70;;;3.93;;
6388;SDS011;3227;42.654;23.360;2022-10-16T15:14:03;9.10;;;3.67;;
6388;SDS011;3227;42.654;23.360;2022-10-16T15:16:32;8.10;;;3.40;;
6388;SDS011;3227;42.654;23.360;2022-10-16T15:18:59;7.03;;;3.80;;
6388;SDS011;3227;42.654;23.360;2022-10-16T15:21:26;9.73;;;3.43;;
6388;SDS011;3227;42.654;23.360;2022-10-16T15:23:54;7.80;;;4.07;;
6388;SDS011;3227;42.654;23.360;2022-10-16T15:26:22;7.70;;;3.60;;
6388;SDS011;3227;42.654;23.360;2022-10-16T15:28:49;8.20;;;3.43;;